Flight Track Log - Related Links

Times and Time Zones

All times are in EDT time to prevent confusion due to time zone crossing. See the SKW6528 flight status page for this flight to view local times or setup timezone preferences in your user account.

Time Position Orientation Groundspeed Altitude Reporting Facility
EDT Latitude Longitude Course Direction KTS MPH feet Rate Location/Type
Wed 12:22:00 PM 39.7849 -104.1102 101° East  Level FlightAware Approximate
Wed 12:23:00 PM 39.7621 -103.9258 98° East  Level FlightAware Approximate
Wed 12:24:00 PM 39.7329 -103.7437 95° East  Level FlightAware Approximate
Wed 12:25:00 PM 39.7213 -103.5566 95° East  Level FlightAware Approximate
Wed 12:26:00 PM 39.7049 -103.3702 98° East  Level FlightAware Approximate
Wed 12:27:00 PM 39.6852 -103.1844 98° East  Level FlightAware Approximate
Wed 12:28:00 PM 39.6735 -102.9975 94° East  Level FlightAware Approximate
Wed 12:29:00 PM 39.6577 -102.8112 99° East  Level FlightAware Approximate
Wed 12:30:00 PM 39.6383 -102.6255 97° East  Level FlightAware Approximate
Wed 12:31:00 PM 39.6205 -102.4395 97° East  Level FlightAware Approximate
Wed 12:32:00 PM 39.6072 -102.2549 113° Southeast  Level FlightAware Approximate
Wed 12:33:00 PM 39.5884 -102.0702 95° East  Level FlightAware Approximate
Wed 12:34:00 PM 39.5833 -101.8832 90° East  Level FlightAware Approximate
Wed 12:35:00 PM 39.5610 -101.6984 100° East  Level FlightAware Approximate
Wed 12:36:00 PM 39.5421 -101.5129 96° East  Level FlightAware Approximate
Wed 12:37:00 PM 39.5223 -101.3278 101° East  Level FlightAware Approximate
Wed 12:38:00 PM 39.4944 -101.1442 100° East  Level FlightAware Approximate
Wed 12:39:00 PM 39.4681 -100.9603 100° East  Level FlightAware Approximate
Wed 12:40:00 PM 39.4416 -100.7765 101° East  Level FlightAware Approximate
Wed 12:41:00 PM 39.4147 -100.5929 101° East  Level FlightAware Approximate
Wed 12:42:00 PM 39.3875 -100.4094 101° East  Level FlightAware Approximate
Wed 12:43:00 PM 39.3601 -100.2261 101° East  Level FlightAware Approximate
Wed 12:44:00 PM 39.3323 -100.0429 101° East  Level FlightAware Approximate
Wed 12:45:00 PM 39.3043 -99.8598 101° East  Level FlightAware Approximate
Wed 12:46:00 PM 39.2760 -99.6770 101° East  Level FlightAware Approximate
Wed 12:47:00 PM 39.2474 -99.4942 101° East  Level FlightAware Approximate
Wed 12:48:00 PM 39.2185 -99.3116 101° East  Level FlightAware Approximate
Wed 12:49:00 PM 39.1891 -99.1292 102° East  Level FlightAware Approximate
Wed 12:50:00 PM 39.1594 -98.9470 102° East  Level FlightAware Approximate
Wed 12:51:00 PM 39.1294 -98.7650 102° East  Level FlightAware Approximate
Wed 12:52:00 PM 39.0991 -98.5830 102° East  Level FlightAware Approximate
Wed 12:53:00 PM 39.0686 -98.4013 102° East  Level FlightAware Approximate
Wed 12:54:00 PM 39.0377 -98.2197 102° East  Level FlightAware Approximate
Wed 12:55:00 PM 39.0066 -98.0383 102° East  Level FlightAware Approximate
Wed 12:56:00 PM 38.9563 -97.8647 113° Southeast  Level FlightAware Approximate
Wed 12:57:00 PM 38.9008 -97.6934 113° Southeast  Level FlightAware Approximate
Wed 12:58:00 PM 38.8449 -97.5224 113° Southeast  Level FlightAware Approximate
Wed 12:59:00 PM 38.7889 -97.3517 113° Southeast  Level FlightAware Approximate
Wed 01:00:00 PM 38.7326 -97.1812 113° Southeast  Level FlightAware Approximate
Wed 01:01:00 PM 38.6760 -97.0110 113° Southeast  Level FlightAware Approximate
Wed 01:02:00 PM 38.6190 -96.8412 113° Southeast  Level FlightAware Approximate
Wed 01:03:00 PM 38.5614 -96.6719 113° Southeast  Level FlightAware Approximate
Wed 01:04:00 PM 38.5035 -96.5029 114° Southeast  Level FlightAware Approximate
Wed 01:05:00 PM 38.4453 -96.3341 114° Southeast  Level FlightAware Approximate
Wed 01:06:00 PM 38.3869 -96.1656 114° Southeast  Level FlightAware Approximate
Wed 01:07:00 PM 38.3283 -95.9974 114° Southeast  Level FlightAware Approximate
Wed 01:08:00 PM 38.2677 -95.8304 115° Southeast  Level FlightAware Approximate
Wed 01:09:00 PM 38.2055 -95.6646 115° Southeast  Level FlightAware Approximate
Wed 01:10:00 PM 38.1422 -95.5011 122° Southeast  Level FlightAware Approximate
Wed 01:11:00 PM 38.0803 -95.3355 114° Southeast  Level FlightAware Approximate
Wed 01:12:00 PM 38.0203 -95.1688 115° Southeast  Level FlightAware Approximate
Wed 01:13:00 PM 37.9696 -94.9981 104° East  Level FlightAware Approximate
Wed 01:14:00 PM 37.9122 -94.8304 117° Southeast  Level FlightAware Approximate
Wed 01:15:00 PM 37.8470 -94.6673 117° Southeast  Level FlightAware Approximate
Wed 01:16:00 PM 37.7868 -94.5012 114° Southeast  Level FlightAware Approximate
Wed 01:17:00 PM 37.7279 -94.3346 114° Southeast  Level FlightAware Approximate
Wed 01:18:00 PM 37.6685 -94.1683 114° Southeast  Level FlightAware Approximate
Wed 01:19:00 PM 37.6023 -94.0069 113° Southeast  Level FlightAware Approximate
Wed 01:20:00 PM 37.5457 -93.8393 117° Southeast  Level FlightAware Approximate
Wed 01:21:00 PM 37.4808 -93.6768 117° Southeast  Level FlightAware Approximate
Wed 01:22:00 PM 37.4160 -93.5146 113° Southeast  Level FlightAware Approximate
Wed 01:23:00 PM 37.3577 -93.3487 122° Southeast  Level FlightAware Approximate
Wed 01:24:00 PM 37.2457 -93.3886 202° Southwest  Level Estimated
Wed 01:25:00 PM 37.2457 -93.3886 202° Southwest  Level Estimated
Wed 01:26:00 PM 37.2457 -93.3886 202° Southwest  Level Estimated
Wed 01:27:00 PM 37.2457 -93.3886 202° Southwest  Level Estimated
Wed 01:28:00 PM 37.2457 -93.3886 202° Southwest  Level Estimated
Wed 01:29:00 PM 37.2457 -93.3886 202° Southwest  Level Estimated
Wed 01:30:00 PM 37.2457 -93.3886 202° Southwest  Level Estimated
Wed 01:31:00 PM 37.2457 -93.3886 202° Southwest  Level Estimated
Wed 01:32:00 PM 37.2457 -93.3886 202° Southwest  Level Estimated
Wed 01:33:00 PM 37.2457 -93.3886 202° Southwest  Level Estimated
Wed 01:34:00 PM 37.2457 -93.3886 202° Southwest  Level Estimated

Login

Don't have an account? Register now (free) for customized features, flight alerts, and more!